DW7178 Weather Reports


Display with metric or nautical units.
time (UTC)temp
F
wind
direction
speed
MPH
gust
MPH
rain 1hr
in
rain 24hr
in
rain mn
in
humidity
%
barometer
mb
20190425163047 52 193 3.0 8.0 0.00 0.00 0.00 62 1013.3
20190425161511 52 207 1.0 7.0 0.00 0.00 0.00 65 1013.5
20190425160015 51 202 0.0 5.0 0.00 0.00 0.00 67 1013.5
20190425153128 50 177 0.0 2.0 0.00 0.00 0.00 66 1013.7
20190425151702 49 180 0.0 5.0 0.00 0.00 0.00 67 1013.7
20190425150221 48 213 0.0 5.0 0.00 0.00 0.00 68 1014.1
20190425144640 47 213 0.0 2.0 0.00 0.00 0.00 74 1014.1
20190425143112 45 171 0.0 0.0 0.00 0.00 0.00 76 1014.1
20190425141631 44 171 0.0 0.0 0.00 0.00 0.00 78 1014.0
20190425140140 43 170 0.0 5.0 0.00 0.00 0.00 78 1014.1
20190425134650 43 336 0.0 1.0 0.00 0.00 0.00 80 1014.0
20190425133153 42 323 0.0 4.0 0.00 0.00 0.00 80 1014.0
20190425131632 41 346 0.0 2.0 0.00 0.00 0.00 80 1014.0
20190425130101 41 342 0.0 4.0 0.00 0.00 0.00 82 1014.0
20190425124639 41 310 0.0 0.0 0.00 0.00 0.00 81 1014.1
20190425121555 43 315 1.0 5.0 0.00 0.00 0.00 79 1014.1
20190425120117 41 269 0.0 4.0 0.00 0.00 0.00 83 1014.1
20190425114557 41 274 0.0 2.0 0.00 0.00 0.00 84 1014.1
20190425113048 41 255 0.0 1.0 0.00 0.00 0.00 84 1014.0
20190425111528 40 254 0.0 0.0 0.00 0.00 0.00 85 1013.7
20190425110026 40 254 0.0 0.0 0.00 0.00 0.00 88 1013.5
20190425104522 37 254 0.0 0.0 0.00 0.01 0.00 91 1013.4
20190425103049 36 254 0.0 0.0 0.00 0.01 0.00 92 1013.0
20190425101514 35 254 0.0 2.0 0.00 0.01 0.00 93 1012.6
20190425100009 34 254 0.0 0.0 0.00 0.01 0.00 93 1012.2
20190425094518 34 254 0.0 0.0 0.00 0.01 0.00 93 1012.1
20190425093014 34 254 0.0 0.0 0.00 0.01 0.00 93 1012.1
20190425091819 34 254 0.0 0.0 0.00 0.01 0.00 93 1012.0
20190425090203 35 254 0.0 0.0 0.00 0.01 0.00 92 1011.7
20190425084651 35 254 0.0 0.0 0.00 0.01 0.00 92 1011.9
20190425083209 35 254 0.0 0.0 0.00 0.01 0.00 91 1012.0
20190425081812 36 254 0.0 0.0 0.00 0.01 0.00 90 1011.9
20190425080242 37 254 0.0 0.0 0.00 0.01 0.00 90 1012.0
20190425074710 37 254 0.0 0.0 0.00 0.01 0.00 90 1012.0
20190425073132 36 254 0.0 0.0 0.00 0.01 0.00 90 1012.1
20190425071651 36 254 0.0 0.0 0.00 0.01 0.00 90 1012.0
20190425070141 36 254 0.0 0.0 0.00 0.01 0.00 90 1012.1
20190425064639 36 254 0.0 0.0 0.00 0.01 0.00 89 1012.1
20190425063132 37 255 0.0 0.0 0.00 0.01 0.00 89 1012.1
20190425060206 37 190 0.0 0.0 0.00 0.01 0.00 88 1011.9
20190425054712 37 188 0.0 2.0 0.00 0.03 0.00 88 1011.7
20190425053137 38 190 0.0 2.0 0.00 0.03 0.00 86 1011.6
20190425051552 39 190 0.0 0.0 0.00 0.03 0.00 86 1011.7
20190425050140 39 190 0.0 0.0 0.00 0.03 0.00 85 1011.8
20190425044618 39 167 0.0 1.0 0.00 0.07 0.00 85 1011.7
20190425043121 39 167 0.0 0.0 0.00 0.07 0.00 85 1011.5
20190425041627 39 167 0.0 0.0 0.00 0.07 0.00 85 1011.3
20190425040045 40 167 0.0 1.0 0.00 0.07 0.00 85 1011.2
20190425034600 40 80 0.0 0.0 0.00 0.17 0.07 85 1011.2
20190425033110 40 76 0.0 2.0 0.00 0.17 0.07 84 1011.0
20190425031550 40 73 0.0 0.0 0.00 0.17 0.07 84 1011.0
20190425030046 40 103 0.0 2.0 0.00 0.17 0.07 84 1010.8
20190425024558 40 139 0.0 0.0 0.00 0.20 0.07 84 1010.6
20190425023132 40 159 0.0 1.0 0.00 0.20 0.07 84 1010.5
20190425021550 40 150 0.0 1.0 0.00 0.20 0.07 83 1010.6
20190425020103 41 128 0.0 2.0 0.00 0.20 0.07 83 1010.6
20190425014519 41 115 0.0 7.0 0.00 0.25 0.07 82 1010.6
20190425013019 41 271 0.0 2.0 0.00 0.25 0.07 82 1010.6
20190425011525 41 340 0.0 2.0 0.00 0.25 0.07 84 1010.6
20190425010029 41 174 0.0 0.0 0.00 0.25 0.07 84 1010.6
20190425004529 41 174 0.0 0.0 0.00 0.25 0.07 82 1010.4
20190425003014 41 131 0.0 0.0 0.00 0.25 0.07 82 1010.2
20190425001506 41 132 0.0 2.0 0.00 0.25 0.07 82 1009.8
20190425000252 41 143 0.0 6.0 0.00 0.25 0.07 82 1009.3
20190424234650 41 198 0.0 1.0 0.00 0.25 0.07 81 1009.1
20190424233347 41 191 0.0 2.0 0.00 0.25 0.07 81 1008.7
20190424231724 42 213 0.0 9.0 0.00 0.25 0.07 81 1008.6
20190424224636 42 144 0.0 8.0 0.00 0.25 0.07 80 1007.9
20190424223130 43 257 1.0 8.0 0.00 0.25 0.07 79 1007.8
20190424221607 43 128 1.0 7.0 0.00 0.25 0.07 80 1007.3
20190424220102 43 148 0.0 5.0 0.00 0.25 0.07 80 1007.2
20190424214625 44 243 0.0 1.0 0.00 0.25 0.07 81 1007.2
20190424213135 44 196 0.0 1.0 0.00 0.25 0.07 81 1007.0
20190424211547 44 270 0.0 1.0 0.00 0.25 0.07 81 1007.0
20190424210108 44 248 0.0 5.0 0.00 0.25 0.07 81 1006.8
20190424204609 44 28 0.0 8.0 0.00 0.25 0.07 79 1006.7
20190424203110 44 263 0.0 0.0 0.00 0.25 0.07 79 1006.7
20190424201557 44 259 0.0 0.0 0.00 0.25 0.07 78 1006.5
20190424200039 45 199 0.0 0.0 0.00 0.25 0.07 78 1006.3
20190424194550 45 170 0.0 0.0 0.00 0.25 0.07 78 1006.1
20190424193058 45 190 0.0 0.0 0.00 0.25 0.07 78 1005.9
20190424191541 46 325 0.0 4.0 0.00 0.25 0.07 77 1005.7
20190424190200 46 95 2.0 7.0 0.00 0.25 0.07 76 1005.7
20190424184547 45 213 1.0 9.0 0.00 0.25 0.07 77 1005.5
20190424183056 45 165 1.0 8.0 0.00 0.25 0.07 77 1005.6
20190424181535 46 161 0.0 6.0 0.00 0.25 0.07 77 1005.5
20190424180107 47 171 1.0 10.0 0.00 0.25 0.07 75 1005.2
20190424174543 48 209 6.0 12.0 0.00 0.25 0.07 74 1004.9
20190424173043 49 77 3.0 9.0 0.00 0.25 0.07 73 1004.7
20190424171522 47 144 0.0 8.0 0.00 0.25 0.07 76 1004.6
20190424170023 46 248 0.0 9.0 0.00 0.25 0.07 78 1004.8